sensor_id;sensor_type;location;lat;lon;timestamp;temperature;humidity
59146;DHT22;44928;53.074;6.646;2023-02-19T00:00:59;9.20;99.90
59146;DHT22;44928;53.074;6.646;2023-02-19T00:03:28;9.20;99.90
59146;DHT22;44928;53.074;6.646;2023-02-19T00:05:54;9.20;99.90
59146;DHT22;44928;53.074;6.646;2023-02-19T00:08:20;9.20;99.90
59146;DHT22;44928;53.074;6.646;2023-02-19T00:10:46;9.20;99.90
59146;DHT22;44928;53.074;6.646;2023-02-19T00:13:11;9.20;99.90
59146;DHT22;44928;53.074;6.646;2023-02-19T00:15:37;9.20;99.90
59146;DHT22;44928;53.074;6.646;2023-02-19T00:18:03;9.20;99.90
59146;DHT22;44928;53.074;6.646;2023-02-19T00:20:29;9.20;99.90
59146;DHT22;44928;53.074;6.646;2023-02-19T00:22:54;9.20;99.90
59146;DHT22;44928;53.074;6.646;2023-02-19T00:25:20;9.20;99.90
59146;DHT22;44928;53.074;6.646;2023-02-19T00:27:46;9.20;99.90
59146;DHT22;44928;53.074;6.646;2023-02-19T00:30:12;9.20;99.90
59146;DHT22;44928;53.074;6.646;2023-02-19T00:32:38;9.20;99.90
59146;DHT22;44928;53.074;6.646;2023-02-19T00:35:04;9.20;99.90
59146;DHT22;44928;53.074;6.646;2023-02-19T00:37:29;9.20;99.90
59146;DHT22;44928;53.074;6.646;2023-02-19T00:39:55;9.20;99.90
59146;DHT22;44928;53.074;6.646;2023-02-19T00:42:21;9.20;99.90
59146;DHT22;44928;53.074;6.646;2023-02-19T00:44:47;9.20;99.90
59146;DHT22;44928;53.074;6.646;2023-02-19T00:47:13;9.20;99.90
59146;DHT22;44928;53.074;6.646;2023-02-19T00:49:39;9.20;99.90
59146;DHT22;44928;53.074;6.646;2023-02-19T00:52:04;9.20;99.90
59146;DHT22;44928;53.074;6.646;2023-02-19T00:54:30;9.20;99.90
59146;DHT22;44928;53.074;6.646;2023-02-19T00:56:56;9.20;99.90
59146;DHT22;44928;53.074;6.646;2023-02-19T00:59:22;9.20;99.90
59146;DHT22;44928;53.074;6.646;2023-02-19T01:01:47;9.20;99.90
59146;DHT22;44928;53.074;6.646;2023-02-19T01:04:14;9.20;99.90
59146;DHT22;44928;53.074;6.646;2023-02-19T01:06:41;9.20;99.90
59146;DHT22;44928;53.074;6.646;2023-02-19T01:09:06;9.20;99.90
59146;DHT22;44928;53.074;6.646;2023-02-19T01:11:32;9.20;99.90
59146;DHT22;44928;53.074;6.646;2023-02-19T01:13:59;9.20;99.90
59146;DHT22;44928;53.074;6.646;2023-02-19T01:16:26;9.20;99.90
59146;DHT22;44928;53.074;6.646;2023-02-19T01:18:52;9.20;99.90
59146;DHT22;44928;53.074;6.646;2023-02-19T01:21:22;9.10;99.90
59146;DHT22;44928;53.074;6.646;2023-02-19T01:23:49;9.20;99.90
59146;DHT22;44928;53.074;6.646;2023-02-19T01:26:17;9.20;99.90
59146;DHT22;44928;53.074;6.646;2023-02-19T01:28:44;9.20;99.90
59146;DHT22;44928;53.074;6.646;2023-02-19T01:31:13;9.20;99.90
59146;DHT22;44928;53.074;6.646;2023-02-19T01:33:41;9.20;99.90
59146;DHT22;44928;53.074;6.646;2023-02-19T01:36:08;9.20;99.90
59146;DHT22;44928;53.074;6.646;2023-02-19T01:38:34;9.30;99.90
59146;DHT22;44928;53.074;6.646;2023-02-19T01:41:05;9.20;99.90
59146;DHT22;44928;53.074;6.646;2023-02-19T01:43:52;9.20;99.90
59146;DHT22;44928;53.074;6.646;2023-02-19T01:46:19;9.20;99.90
59146;DHT22;44928;53.074;6.646;2023-02-19T01:48:45;9.30;99.90
59146;DHT22;44928;53.074;6.646;2023-02-19T01:51:14;9.20;99.90
59146;DHT22;44928;53.074;6.646;2023-02-19T01:53:45;9.30;99.90
59146;DHT22;44928;53.074;6.646;2023-02-19T01:56:13;9.30;99.90
59146;DHT22;44928;53.074;6.646;2023-02-19T01:58:40;9.30;99.90
59146;DHT22;44928;53.074;6.646;2023-02-19T02:01:07;9.30;99.90
59146;DHT22;44928;53.074;6.646;2023-02-19T02:03:36;9.30;99.90
59146;DHT22;44928;53.074;6.646;2023-02-19T02:06:23;9.30;99.90
59146;DHT22;44928;53.074;6.646;2023-02-19T02:08:52;9.30;99.90
59146;DHT22;44928;53.074;6.646;2023-02-19T02:11:41;9.30;99.90
59146;DHT22;44928;53.074;6.646;2023-02-19T02:14:08;9.20;99.90
59146;DHT22;44928;53.074;6.646;2023-02-19T02:16:54;9.10;99.90
59146;DHT22;44928;53.074;6.646;2023-02-19T02:22:50;9.10;99.90
59146;DHT22;44928;53.074;6.646;2023-02-19T02:30:53;8.80;99.90
59146;DHT22;44928;53.074;6.646;2023-02-19T02:33:37;8.60;99.90
59146;DHT22;44928;53.074;6.646;2023-02-19T02:36:06;8.40;99.90
59146;DHT22;44928;53.074;6.646;2023-02-19T02:38:36;8.20;99.90
59146;DHT22;44928;53.074;6.646;2023-02-19T02:41:02;8.10;99.90
59146;DHT22;44928;53.074;6.646;2023-02-19T02:43:28;8.00;99.90
59146;DHT22;44928;53.074;6.646;2023-02-19T02:45:54;7.90;99.90
59146;DHT22;44928;53.074;6.646;2023-02-19T02:48:44;7.80;99.90
59146;DHT22;44928;53.074;6.646;2023-02-19T02:56:50;7.60;99.90
59146;DHT22;44928;53.074;6.646;2023-02-19T02:59:21;7.60;99.90
59146;DHT22;44928;53.074;6.646;2023-02-19T03:02:01;7.50;99.90
59146;DHT22;44928;53.074;6.646;2023-02-19T03:07:42;7.50;99.90
59146;DHT22;44928;53.074;6.646;2023-02-19T03:10:12;7.40;99.90
59146;DHT22;44928;53.074;6.646;2023-02-19T03:12:39;7.30;99.90
59146;DHT22;44928;53.074;6.646;2023-02-19T03:15:31;7.30;99.90
59146;DHT22;44928;53.074;6.646;2023-02-19T03:18:18;7.30;99.90
59146;DHT22;44928;53.074;6.646;2023-02-19T03:21:06;7.30;99.90
59146;DHT22;44928;53.074;6.646;2023-02-19T03:23:34;7.30;99.90
59146;DHT22;44928;53.074;6.646;2023-02-19T03:26:20;7.30;99.90
59146;DHT22;44928;53.074;6.646;2023-02-19T03:28:49;7.30;99.90
59146;DHT22;44928;53.074;6.646;2023-02-19T03:31:34;7.30;99.90
59146;DHT22;44928;53.074;6.646;2023-02-19T03:34:07;7.20;99.90
59146;DHT22;44928;53.074;6.646;2023-02-19T03:36:42;7.20;99.90
59146;DHT22;44928;53.074;6.646;2023-02-19T03:39:10;7.20;99.90
59146;DHT22;44928;53.074;6.646;2023-02-19T03:42:08;7.20;99.90
59146;DHT22;44928;53.074;6.646;2023-02-19T03:47:43;7.10;99.90
59146;DHT22;44928;53.074;6.646;2023-02-19T03:50:20;7.10;99.90
59146;DHT22;44928;53.074;6.646;2023-02-19T03:52:57;7.10;99.90
59146;DHT22;44928;53.074;6.646;2023-02-19T03:57:56;7.10;99.90
59146;DHT22;44928;53.074;6.646;2023-02-19T04:00:53;7.00;99.90
59146;DHT22;44928;53.074;6.646;2023-02-19T04:03:25;7.00;99.90
59146;DHT22;44928;53.074;6.646;2023-02-19T04:05:58;7.00;99.90
59146;DHT22;44928;53.074;6.646;2023-02-19T04:08:26;7.00;99.90
59146;DHT22;44928;53.074;6.646;2023-02-19T04:10:53;6.90;99.90
59146;DHT22;44928;53.074;6.646;2023-02-19T04:13:28;6.90;99.90
59146;DHT22;44928;53.074;6.646;2023-02-19T04:15:59;6.90;99.90
59146;DHT22;44928;53.074;6.646;2023-02-19T04:18:30;6.90;99.90
59146;DHT22;44928;53.074;6.646;2023-02-19T04:20:58;6.90;99.90
59146;DHT22;44928;53.074;6.646;2023-02-19T04:23:27;6.80;99.90
59146;DHT22;44928;53.074;6.646;2023-02-19T04:25:56;6.80;99.90
59146;DHT22;44928;53.074;6.646;2023-02-19T04:28:23;6.80;99.90
59146;DHT22;44928;53.074;6.646;2023-02-19T04:30:49;6.80;99.90
59146;DHT22;44928;53.074;6.646;2023-02-19T04:33:16;6.70;99.90
59146;DHT22;44928;53.074;6.646;2023-02-19T04:35:42;6.70;99.90
59146;DHT22;44928;53.074;6.646;2023-02-19T04:38:08;6.70;99.90
59146;DHT22;44928;53.074;6.646;2023-02-19T04:40:33;6.70;99.90
59146;DHT22;44928;53.074;6.646;2023-02-19T04:42:59;6.70;99.90
59146;DHT22;44928;53.074;6.646;2023-02-19T04:45:25;6.70;99.90
59146;DHT22;44928;53.074;6.646;2023-02-19T04:47:51;6.70;99.90
59146;DHT22;44928;53.074;6.646;2023-02-19T04:50:17;6.70;99.90
59146;DHT22;44928;53.074;6.646;2023-02-19T04:52:42;6.70;99.90
59146;DHT22;44928;53.074;6.646;2023-02-19T04:55:09;6.70;99.90
59146;DHT22;44928;53.074;6.646;2023-02-19T04:57:35;6.70;99.90
59146;DHT22;44928;53.074;6.646;2023-02-19T05:00:01;6.70;99.90
59146;DHT22;44928;53.074;6.646;2023-02-19T05:02:29;6.70;99.90
59146;DHT22;44928;53.074;6.646;2023-02-19T05:04:54;6.70;99.90
59146;DHT22;44928;53.074;6.646;2023-02-19T05:07:20;6.70;99.90
59146;DHT22;44928;53.074;6.646;2023-02-19T05:09:46;6.70;99.90
59146;DHT22;44928;53.074;6.646;2023-02-19T05:12:12;6.70;99.90
59146;DHT22;44928;53.074;6.646;2023-02-19T05:14:37;6.70;99.90
59146;DHT22;44928;53.074;6.646;2023-02-19T05:17:03;6.70;99.90
59146;DHT22;44928;53.074;6.646;2023-02-19T05:19:29;6.70;99.90
59146;DHT22;44928;53.074;6.646;2023-02-19T05:21:55;6.70;99.90
59146;DHT22;44928;53.074;6.646;2023-02-19T05:24:20;6.60;99.90
59146;DHT22;44928;53.074;6.646;2023-02-19T05:26:46;6.60;99.90
59146;DHT22;44928;53.074;6.646;2023-02-19T05:29:13;6.60;99.90
59146;DHT22;44928;53.074;6.646;2023-02-19T05:31:38;6.60;99.90
59146;DHT22;44928;53.074;6.646;2023-02-19T05:34:04;6.50;99.90
59146;DHT22;44928;53.074;6.646;2023-02-19T05:36:30;6.50;99.90
59146;DHT22;44928;53.074;6.646;2023-02-19T05:38:57;6.50;99.90
59146;DHT22;44928;53.074;6.646;2023-02-19T05:41:25;6.50;99.90
59146;DHT22;44928;53.074;6.646;2023-02-19T05:43:51;6.40;99.90
59146;DHT22;44928;53.074;6.646;2023-02-19T05:46:20;6.40;99.90
59146;DHT22;44928;53.074;6.646;2023-02-19T05:48:47;6.40;99.90
59146;DHT22;44928;53.074;6.646;2023-02-19T05:51:15;6.40;99.90
59146;DHT22;44928;53.074;6.646;2023-02-19T05:53:42;6.40;99.90
59146;DHT22;44928;53.074;6.646;2023-02-19T05:58:53;6.30;99.90
59146;DHT22;44928;53.074;6.646;2023-02-19T06:01:21;6.30;99.90
59146;DHT22;44928;53.074;6.646;2023-02-19T06:03:47;6.30;99.90
59146;DHT22;44928;53.074;6.646;2023-02-19T06:06:14;6.30;99.90
59146;DHT22;44928;53.074;6.646;2023-02-19T06:08:40;6.20;99.90
59146;DHT22;44928;53.074;6.646;2023-02-19T06:11:05;6.20;99.90
59146;DHT22;44928;53.074;6.646;2023-02-19T06:13:31;6.20;99.90
59146;DHT22;44928;53.074;6.646;2023-02-19T06:15:57;6.20;99.90
59146;DHT22;44928;53.074;6.646;2023-02-19T06:18:23;6.10;99.90
59146;DHT22;44928;53.074;6.646;2023-02-19T06:20:48;6.10;99.90
59146;DHT22;44928;53.074;6.646;2023-02-19T06:23:14;6.10;99.90
59146;DHT22;44928;53.074;6.646;2023-02-19T06:25:40;6.00;99.90
59146;DHT22;44928;53.074;6.646;2023-02-19T06:28:06;6.00;99.90
59146;DHT22;44928;53.074;6.646;2023-02-19T06:30:34;6.00;99.90
59146;DHT22;44928;53.074;6.646;2023-02-19T06:33:00;6.00;99.90
59146;DHT22;44928;53.074;6.646;2023-02-19T06:35:26;6.00;99.90
59146;DHT22;44928;53.074;6.646;2023-02-19T06:37:52;5.90;99.90
59146;DHT22;44928;53.074;6.646;2023-02-19T06:40:17;5.90;99.90
59146;DHT22;44928;53.074;6.646;2023-02-19T06:42:43;5.90;99.90
59146;DHT22;44928;53.074;6.646;2023-02-19T06:45:09;5.90;99.90
59146;DHT22;44928;53.074;6.646;2023-02-19T06:47:35;5.90;99.90
59146;DHT22;44928;53.074;6.646;2023-02-19T06:50:01;5.90;99.90
59146;DHT22;44928;53.074;6.646;2023-02-19T06:52:27;5.90;99.90
59146;DHT22;44928;53.074;6.646;2023-02-19T06:54:53;5.90;99.90
59146;DHT22;44928;53.074;6.646;2023-02-19T06:57:18;5.90;99.90
59146;DHT22;44928;53.074;6.646;2023-02-19T06:59:45;5.90;99.90
59146;DHT22;44928;53.074;6.646;2023-02-19T07:02:11;5.90;99.90
59146;DHT22;44928;53.074;6.646;2023-02-19T07:04:37;5.90;99.90
59146;DHT22;44928;53.074;6.646;2023-02-19T07:07:03;5.90;99.90
59146;DHT22;44928;53.074;6.646;2023-02-19T07:09:29;5.90;99.90
59146;DHT22;44928;53.074;6.646;2023-02-19T07:11:55;5.90;99.90
59146;DHT22;44928;53.074;6.646;2023-02-19T07:14:21;5.90;99.90
59146;DHT22;44928;53.074;6.646;2023-02-19T07:16:47;5.90;99.90
59146;DHT22;44928;53.074;6.646;2023-02-19T07:19:13;5.90;99.90
59146;DHT22;44928;53.074;6.646;2023-02-19T07:21:40;5.90;99.90
59146;DHT22;44928;53.074;6.646;2023-02-19T07:24:07;5.90;99.90
59146;DHT22;44928;53.074;6.646;2023-02-19T07:26:34;5.80;99.90
59146;DHT22;44928;53.074;6.646;2023-02-19T07:29:00;5.80;99.90
59146;DHT22;44928;53.074;6.646;2023-02-19T07:31:27;5.80;99.90
59146;DHT22;44928;53.074;6.646;2023-02-19T07:33:54;5.80;99.90
59146;DHT22;44928;53.074;6.646;2023-02-19T07:36:21;5.80;99.90
59146;DHT22;44928;53.074;6.646;2023-02-19T07:38:51;5.80;99.90
59146;DHT22;44928;53.074;6.646;2023-02-19T07:41:19;5.80;99.90
59146;DHT22;44928;53.074;6.646;2023-02-19T07:43:45;5.80;99.90
59146;DHT22;44928;53.074;6.646;2023-02-19T07:46:12;5.80;99.90
59146;DHT22;44928;53.074;6.646;2023-02-19T07:48:39;5.80;99.90
59146;DHT22;44928;53.074;6.646;2023-02-19T07:51:07;5.70;99.90
59146;DHT22;44928;53.074;6.646;2023-02-19T07:53:34;5.70;99.90
59146;DHT22;44928;53.074;6.646;2023-02-19T07:56:02;5.70;99.90
59146;DHT22;44928;53.074;6.646;2023-02-19T07:58:28;5.70;99.90
59146;DHT22;44928;53.074;6.646;2023-02-19T08:00:54;5.70;99.90
59146;DHT22;44928;53.074;6.646;2023-02-19T08:03:20;5.70;99.90
59146;DHT22;44928;53.074;6.646;2023-02-19T08:05:46;5.70;99.90
59146;DHT22;44928;53.074;6.646;2023-02-19T08:08:14;5.60;99.90
59146;DHT22;44928;53.074;6.646;2023-02-19T08:10:41;5.60;99.90
59146;DHT22;44928;53.074;6.646;2023-02-19T08:13:27;5.60;99.90
59146;DHT22;44928;53.074;6.646;2023-02-19T08:15:55;5.60;99.90
59146;DHT22;44928;53.074;6.646;2023-02-19T08:18:25;5.60;99.90
59146;DHT22;44928;53.074;6.646;2023-02-19T08:20:52;5.60;99.90
59146;DHT22;44928;53.074;6.646;2023-02-19T08:23:18;5.60;99.90
59146;DHT22;44928;53.074;6.646;2023-02-19T08:25:49;5.60;99.90
59146;DHT22;44928;53.074;6.646;2023-02-19T08:28:15;5.60;99.90
59146;DHT22;44928;53.074;6.646;2023-02-19T08:30:43;5.60;99.90
59146;DHT22;44928;53.074;6.646;2023-02-19T08:33:12;5.70;99.90
59146;DHT22;44928;53.074;6.646;2023-02-19T08:35:38;5.70;99.90
59146;DHT22;44928;53.074;6.646;2023-02-19T08:38:05;5.70;99.90
59146;DHT22;44928;53.074;6.646;2023-02-19T08:40:32;5.70;99.90
59146;DHT22;44928;53.074;6.646;2023-02-19T08:43:12;5.70;99.90
59146;DHT22;44928;53.074;6.646;2023-02-19T08:45:40;5.70;99.90
59146;DHT22;44928;53.074;6.646;2023-02-19T08:48:07;5.70;99.90
59146;DHT22;44928;53.074;6.646;2023-02-19T08:50:34;5.70;99.90
59146;DHT22;44928;53.074;6.646;2023-02-19T08:53:01;5.70;99.90
59146;DHT22;44928;53.074;6.646;2023-02-19T08:55:27;5.70;99.90
59146;DHT22;44928;53.074;6.646;2023-02-19T08:57:53;5.70;99.90
59146;DHT22;44928;53.074;6.646;2023-02-19T09:00:19;5.70;99.90
59146;DHT22;44928;53.074;6.646;2023-02-19T09:02:48;5.80;99.90
59146;DHT22;44928;53.074;6.646;2023-02-19T09:05:15;5.80;99.90
59146;DHT22;44928;53.074;6.646;2023-02-19T09:07:42;5.80;99.90
59146;DHT22;44928;53.074;6.646;2023-02-19T09:10:09;5.80;99.90
59146;DHT22;44928;53.074;6.646;2023-02-19T09:12:36;5.80;99.90
59146;DHT22;44928;53.074;6.646;2023-02-19T09:15:03;5.80;99.90
59146;DHT22;44928;53.074;6.646;2023-02-19T09:17:29;5.80;99.90
59146;DHT22;44928;53.074;6.646;2023-02-19T09:19:55;5.90;99.90
59146;DHT22;44928;53.074;6.646;2023-02-19T09:22:21;6.00;99.90
59146;DHT22;44928;53.074;6.646;2023-02-19T09:24:47;6.00;99.90
59146;DHT22;44928;53.074;6.646;2023-02-19T09:27:16;6.10;99.90
59146;DHT22;44928;53.074;6.646;2023-02-19T09:29:43;6.10;99.90
59146;DHT22;44928;53.074;6.646;2023-02-19T09:32:09;6.10;99.90
59146;DHT22;44928;53.074;6.646;2023-02-19T09:34:35;6.20;99.90
59146;DHT22;44928;53.074;6.646;2023-02-19T09:37:01;6.20;99.90
59146;DHT22;44928;53.074;6.646;2023-02-19T09:39:26;6.20;99.90
59146;DHT22;44928;53.074;6.646;2023-02-19T09:41:58;6.20;99.90
59146;DHT22;44928;53.074;6.646;2023-02-19T09:44:32;6.30;99.90
59146;DHT22;44928;53.074;6.646;2023-02-19T09:47:00;6.30;99.90
59146;DHT22;44928;53.074;6.646;2023-02-19T09:49:38;6.40;99.90
59146;DHT22;44928;53.074;6.646;2023-02-19T09:54:42;6.60;99.90
59146;DHT22;44928;53.074;6.646;2023-02-19T09:57:15;6.60;99.90
59146;DHT22;44928;53.074;6.646;2023-02-19T09:59:51;6.60;99.90
59146;DHT22;44928;53.074;6.646;2023-02-19T10:02:23;6.70;99.90
59146;DHT22;44928;53.074;6.646;2023-02-19T10:04:51;6.70;99.90
59146;DHT22;44928;53.074;6.646;2023-02-19T10:07:22;6.70;99.90
59146;DHT22;44928;53.074;6.646;2023-02-19T10:09:56;6.70;99.90
59146;DHT22;44928;53.074;6.646;2023-02-19T10:12:28;6.80;99.90
59146;DHT22;44928;53.074;6.646;2023-02-19T10:15:04;6.80;99.90
59146;DHT22;44928;53.074;6.646;2023-02-19T10:17:33;6.80;99.90
59146;DHT22;44928;53.074;6.646;2023-02-19T10:20:00;6.80;99.90
59146;DHT22;44928;53.074;6.646;2023-02-19T10:22:31;6.80;99.90
59146;DHT22;44928;53.074;6.646;2023-02-19T10:24:58;6.80;99.90
59146;DHT22;44928;53.074;6.646;2023-02-19T10:27:27;6.80;99.90
59146;DHT22;44928;53.074;6.646;2023-02-19T10:29:55;6.80;99.90
59146;DHT22;44928;53.074;6.646;2023-02-19T10:32:23;6.90;99.90
59146;DHT22;44928;53.074;6.646;2023-02-19T10:37:45;7.00;99.90
59146;DHT22;44928;53.074;6.646;2023-02-19T10:40:31;7.10;99.90
59146;DHT22;44928;53.074;6.646;2023-02-19T10:43:04;7.30;99.90
59146;DHT22;44928;53.074;6.646;2023-02-19T10:45:44;7.40;99.90
59146;DHT22;44928;53.074;6.646;2023-02-19T10:48:24;7.50;99.90
59146;DHT22;44928;53.074;6.646;2023-02-19T10:50:58;7.40;99.90
59146;DHT22;44928;53.074;6.646;2023-02-19T10:53:45;7.50;99.90
59146;DHT22;44928;53.074;6.646;2023-02-19T10:56:22;7.40;99.90
59146;DHT22;44928;53.074;6.646;2023-02-19T10:58:49;7.40;99.90
59146;DHT22;44928;53.074;6.646;2023-02-19T11:01:17;7.30;99.90
59146;DHT22;44928;53.074;6.646;2023-02-19T11:03:45;7.30;99.90
59146;DHT22;44928;53.074;6.646;2023-02-19T11:06:12;7.40;99.90
59146;DHT22;44928;53.074;6.646;2023-02-19T11:08:56;7.50;99.90
59146;DHT22;44928;53.074;6.646;2023-02-19T11:11:32;7.60;99.90
59146;DHT22;44928;53.074;6.646;2023-02-19T11:14:04;7.60;99.90
59146;DHT22;44928;53.074;6.646;2023-02-19T11:16:48;7.70;99.90
59146;DHT22;44928;53.074;6.646;2023-02-19T11:19:34;7.70;99.90
59146;DHT22;44928;53.074;6.646;2023-02-19T11:22:16;7.80;99.90
59146;DHT22;44928;53.074;6.646;2023-02-19T11:24:48;7.80;99.90
59146;DHT22;44928;53.074;6.646;2023-02-19T11:27:19;8.00;99.90
59146;DHT22;44928;53.074;6.646;2023-02-19T11:29:45;8.10;99.90
59146;DHT22;44928;53.074;6.646;2023-02-19T11:32:21;8.20;99.90
59146;DHT22;44928;53.074;6.646;2023-02-19T11:34:48;8.30;99.90
59146;DHT22;44928;53.074;6.646;2023-02-19T11:37:19;8.40;99.90
59146;DHT22;44928;53.074;6.646;2023-02-19T11:39:51;8.50;99.90
59146;DHT22;44928;53.074;6.646;2023-02-19T11:45:33;8.50;99.90
59146;DHT22;44928;53.074;6.646;2023-02-19T11:48:22;8.50;99.90
59146;DHT22;44928;53.074;6.646;2023-02-19T11:50:55;8.50;99.90
59146;DHT22;44928;53.074;6.646;2023-02-19T11:53:31;8.50;99.90
59146;DHT22;44928;53.074;6.646;2023-02-19T11:59:25;8.50;99.90
59146;DHT22;44928;53.074;6.646;2023-02-19T12:28:21;8.70;99.90
59146;DHT22;44928;53.074;6.646;2023-02-19T12:37:12;9.00;99.90
59146;DHT22;44928;53.074;6.646;2023-02-19T12:44:56;9.10;99.90
59146;DHT22;44928;53.074;6.646;2023-02-19T12:47:28;9.10;99.90
59146;DHT22;44928;53.074;6.646;2023-02-19T12:50:20;9.00;99.90
59146;DHT22;44928;53.074;6.646;2023-02-19T12:52:57;9.00;99.90
59146;DHT22;44928;53.074;6.646;2023-02-19T12:55:38;8.90;99.90
59146;DHT22;44928;53.074;6.646;2023-02-19T12:58:07;8.90;99.90
59146;DHT22;44928;53.074;6.646;2023-02-19T13:00:43;8.80;99.90
59146;DHT22;44928;53.074;6.646;2023-02-19T13:03:22;8.70;99.90
59146;DHT22;44928;53.074;6.646;2023-02-19T13:05:54;8.70;99.90
59146;DHT22;44928;53.074;6.646;2023-02-19T13:11:22;8.70;99.90
59146;DHT22;44928;53.074;6.646;2023-02-19T13:14:35;8.60;99.90
59146;DHT22;44928;53.074;6.646;2023-02-19T13:16:38;8.60;99.90
59146;DHT22;44928;53.074;6.646;2023-02-19T13:19:08;8.50;99.90
59146;DHT22;44928;53.074;6.646;2023-02-19T13:21:36;8.60;99.90
59146;DHT22;44928;53.074;6.646;2023-02-19T13:24:31;8.50;99.90
59146;DHT22;44928;53.074;6.646;2023-02-19T13:37:42;8.40;99.90
59146;DHT22;44928;53.074;6.646;2023-02-19T13:40:34;8.40;99.90
59146;DHT22;44928;53.074;6.646;2023-02-19T13:43:03;8.50;99.90
59146;DHT22;44928;53.074;6.646;2023-02-19T13:45:39;8.50;99.90
59146;DHT22;44928;53.074;6.646;2023-02-19T14:04:39;8.30;99.90
59146;DHT22;44928;53.074;6.646;2023-02-19T14:14:50;8.50;99.90
59146;DHT22;44928;53.074;6.646;2023-02-19T14:17:41;8.70;99.90
59146;DHT22;44928;53.074;6.646;2023-02-19T14:27:50;9.40;99.90
59146;DHT22;44928;53.074;6.646;2023-02-19T14:30:18;9.50;99.90
59146;DHT22;44928;53.074;6.646;2023-02-19T14:32:56;9.70;99.90
59146;DHT22;44928;53.074;6.646;2023-02-19T14:35:33;9.80;99.90
59146;DHT22;44928;53.074;6.646;2023-02-19T14:38:00;9.90;99.90
59146;DHT22;44928;53.074;6.646;2023-02-19T14:40:38;9.80;99.90
59146;DHT22;44928;53.074;6.646;2023-02-19T14:43:13;9.70;99.90
59146;DHT22;44928;53.074;6.646;2023-02-19T14:45:46;9.50;99.90
59146;DHT22;44928;53.074;6.646;2023-02-19T14:48:19;9.40;99.90
59146;DHT22;44928;53.074;6.646;2023-02-19T14:50:49;9.20;99.90
59146;DHT22;44928;53.074;6.646;2023-02-19T14:53:16;9.10;99.90
59146;DHT22;44928;53.074;6.646;2023-02-19T14:55:46;9.00;99.90
59146;DHT22;44928;53.074;6.646;2023-02-19T14:58:19;9.00;99.90
59146;DHT22;44928;53.074;6.646;2023-02-19T15:00:46;8.90;99.90
59146;DHT22;44928;53.074;6.646;2023-02-19T15:06:13;8.80;99.90
59146;DHT22;44928;53.074;6.646;2023-02-19T15:08:51;8.80;99.90
59146;DHT22;44928;53.074;6.646;2023-02-19T15:11:26;8.70;99.90
59146;DHT22;44928;53.074;6.646;2023-02-19T15:14:02;8.70;99.90
59146;DHT22;44928;53.074;6.646;2023-02-19T15:16:29;8.60;99.90
59146;DHT22;44928;53.074;6.646;2023-02-19T15:18:58;8.60;99.90
59146;DHT22;44928;53.074;6.646;2023-02-19T15:21:27;8.60;99.90
59146;DHT22;44928;53.074;6.646;2023-02-19T15:23:56;8.60;99.90
59146;DHT22;44928;53.074;6.646;2023-02-19T15:26:35;8.60;99.90
59146;DHT22;44928;53.074;6.646;2023-02-19T15:29:08;8.60;99.90
59146;DHT22;44928;53.074;6.646;2023-02-19T15:31:34;8.60;99.90
59146;DHT22;44928;53.074;6.646;2023-02-19T15:34:00;8.60;99.90
59146;DHT22;44928;53.074;6.646;2023-02-19T15:36:31;8.60;99.90
59146;DHT22;44928;53.074;6.646;2023-02-19T15:39:01;8.50;99.90
59146;DHT22;44928;53.074;6.646;2023-02-19T15:41:32;8.60;99.90
59146;DHT22;44928;53.074;6.646;2023-02-19T15:44:27;8.60;99.90
59146;DHT22;44928;53.074;6.646;2023-02-19T15:46:54;8.60;99.90
59146;DHT22;44928;53.074;6.646;2023-02-19T15:49:30;8.60;99.90
59146;DHT22;44928;53.074;6.646;2023-02-19T15:52:06;8.60;99.90
59146;DHT22;44928;53.074;6.646;2023-02-19T15:54:40;8.60;99.90
59146;DHT22;44928;53.074;6.646;2023-02-19T15:57:13;8.60;99.90
59146;DHT22;44928;53.074;6.646;2023-02-19T15:59:47;8.60;99.90
59146;DHT22;44928;53.074;6.646;2023-02-19T16:02:15;8.60;99.90
59146;DHT22;44928;53.074;6.646;2023-02-19T16:04:43;8.60;99.90
59146;DHT22;44928;53.074;6.646;2023-02-19T16:07:25;8.60;99.90
59146;DHT22;44928;53.074;6.646;2023-02-19T16:10:05;8.50;99.90
59146;DHT22;44928;53.074;6.646;2023-02-19T16:12:31;8.50;99.90
59146;DHT22;44928;53.074;6.646;2023-02-19T16:14:57;8.50;99.90
59146;DHT22;44928;53.074;6.646;2023-02-19T16:17:23;8.40;99.90
59146;DHT22;44928;53.074;6.646;2023-02-19T16:19:59;8.40;99.90
59146;DHT22;44928;53.074;6.646;2023-02-19T16:22:28;8.30;99.90
59146;DHT22;44928;53.074;6.646;2023-02-19T16:25:00;8.30;99.90
59146;DHT22;44928;53.074;6.646;2023-02-19T16:29:52;8.10;99.90
59146;DHT22;44928;53.074;6.646;2023-02-19T16:32:18;8.10;99.90
59146;DHT22;44928;53.074;6.646;2023-02-19T16:34:47;8.10;99.90
59146;DHT22;44928;53.074;6.646;2023-02-19T16:37:36;8.00;99.90
59146;DHT22;44928;53.074;6.646;2023-02-19T16:45:28;7.90;99.90
59146;DHT22;44928;53.074;6.646;2023-02-19T16:47:54;7.90;99.90
59146;DHT22;44928;53.074;6.646;2023-02-19T16:50:24;7.90;99.90
59146;DHT22;44928;53.074;6.646;2023-02-19T16:52:59;7.80;99.90
59146;DHT22;44928;53.074;6.646;2023-02-19T16:55:27;7.80;99.90
59146;DHT22;44928;53.074;6.646;2023-02-19T16:57:53;7.70;99.90
59146;DHT22;44928;53.074;6.646;2023-02-19T17:00:21;7.70;99.90
59146;DHT22;44928;53.074;6.646;2023-02-19T17:03:02;7.70;99.90
59146;DHT22;44928;53.074;6.646;2023-02-19T17:05:34;7.60;99.90
59146;DHT22;44928;53.074;6.646;2023-02-19T17:10:49;7.50;99.90
59146;DHT22;44928;53.074;6.646;2023-02-19T17:13:15;7.40;99.90
59146;DHT22;44928;53.074;6.646;2023-02-19T17:15:41;7.40;99.90
59146;DHT22;44928;53.074;6.646;2023-02-19T17:18:09;7.50;99.90
59146;DHT22;44928;53.074;6.646;2023-02-19T17:20:35;7.40;99.90
59146;DHT22;44928;53.074;6.646;2023-02-19T17:23:01;7.40;99.90
59146;DHT22;44928;53.074;6.646;2023-02-19T17:25:27;7.30;99.90
59146;DHT22;44928;53.074;6.646;2023-02-19T17:27:53;7.30;99.90
59146;DHT22;44928;53.074;6.646;2023-02-19T17:30:30;7.20;99.90
59146;DHT22;44928;53.074;6.646;2023-02-19T17:32:56;7.30;99.90
59146;DHT22;44928;53.074;6.646;2023-02-19T17:35:21;7.20;99.90
59146;DHT22;44928;53.074;6.646;2023-02-19T17:37:47;7.20;99.90
59146;DHT22;44928;53.074;6.646;2023-02-19T17:40:30;7.20;99.90
59146;DHT22;44928;53.074;6.646;2023-02-19T17:42:56;7.20;99.90
59146;DHT22;44928;53.074;6.646;2023-02-19T17:45:22;7.10;99.90
59146;DHT22;44928;53.074;6.646;2023-02-19T17:47:49;7.00;99.90
59146;DHT22;44928;53.074;6.646;2023-02-19T17:50:21;7.00;99.90
59146;DHT22;44928;53.074;6.646;2023-02-19T17:52:47;7.00;99.90
59146;DHT22;44928;53.074;6.646;2023-02-19T17:55:14;6.90;99.90
59146;DHT22;44928;53.074;6.646;2023-02-19T17:57:40;6.90;99.90
59146;DHT22;44928;53.074;6.646;2023-02-19T18:00:07;6.90;99.90
59146;DHT22;44928;53.074;6.646;2023-02-19T18:02:32;6.80;99.90
59146;DHT22;44928;53.074;6.646;2023-02-19T18:04:59;6.80;99.90
59146;DHT22;44928;53.074;6.646;2023-02-19T18:07:24;6.80;99.90
59146;DHT22;44928;53.074;6.646;2023-02-19T18:09:50;6.80;99.90
59146;DHT22;44928;53.074;6.646;2023-02-19T18:12:16;6.70;99.90
59146;DHT22;44928;53.074;6.646;2023-02-19T18:14:44;6.70;99.90
59146;DHT22;44928;53.074;6.646;2023-02-19T18:17:10;6.60;99.90